sensor_id;sensor_type;location;lat;lon;timestamp;P1;durP1;ratioP1;P2;durP2;ratioP2
12591;SDS011;6361;52.120;5.108;2023-05-07T00:00:19;29.48;;;23.52;;
12591;SDS011;6361;52.120;5.108;2023-05-07T00:02:44;30.13;;;23.17;;
12591;SDS011;6361;52.120;5.108;2023-05-07T00:05:10;28.33;;;23.33;;
12591;SDS011;6361;52.120;5.108;2023-05-07T00:07:35;32.45;;;23.45;;
12591;SDS011;6361;52.120;5.108;2023-05-07T00:10:01;28.60;;;22.73;;
12591;SDS011;6361;52.120;5.108;2023-05-07T00:12:27;27.58;;;22.65;;
12591;SDS011;6361;52.120;5.108;2023-05-07T00:14:52;29.77;;;23.27;;
12591;SDS011;6361;52.120;5.108;2023-05-07T00:17:18;30.50;;;23.65;;
12591;SDS011;6361;52.120;5.108;2023-05-07T00:19:43;30.65;;;23.52;;
12591;SDS011;6361;52.120;5.108;2023-05-07T00:22:08;27.80;;;21.48;;
12591;SDS011;6361;52.120;5.108;2023-05-07T00:24:34;26.90;;;21.85;;
12591;SDS011;6361;52.120;5.108;2023-05-07T00:26:59;27.77;;;22.10;;
12591;SDS011;6361;52.120;5.108;2023-05-07T00:29:25;27.58;;;20.83;;
12591;SDS011;6361;52.120;5.108;2023-05-07T00:31:50;26.85;;;20.92;;
12591;SDS011;6361;52.120;5.108;2023-05-07T00:34:16;24.20;;;20.40;;
12591;SDS011;6361;52.120;5.108;2023-05-07T00:36:41;26.80;;;19.30;;
12591;SDS011;6361;52.120;5.108;2023-05-07T00:39:06;24.30;;;19.42;;
12591;SDS011;6361;52.120;5.108;2023-05-07T00:41:32;22.38;;;18.42;;
12591;SDS011;6361;52.120;5.108;2023-05-07T00:44:00;21.23;;;15.82;;
12591;SDS011;6361;52.120;5.108;2023-05-07T00:46:27;24.73;;;18.15;;
12591;SDS011;6361;52.120;5.108;2023-05-07T00:48:52;23.48;;;17.63;;
12591;SDS011;6361;52.120;5.108;2023-05-07T00:51:18;24.55;;;17.90;;
12591;SDS011;6361;52.120;5.108;2023-05-07T00:53:44;21.92;;;17.00;;
12591;SDS011;6361;52.120;5.108;2023-05-07T00:56:09;20.15;;;17.70;;
12591;SDS011;6361;52.120;5.108;2023-05-07T00:58:35;21.20;;;17.77;;
12591;SDS011;6361;52.120;5.108;2023-05-07T01:01:00;19.67;;;16.77;;
12591;SDS011;6361;52.120;5.108;2023-05-07T01:03:26;17.77;;;13.50;;
12591;SDS011;6361;52.120;5.108;2023-05-07T01:05:52;19.90;;;14.77;;
12591;SDS011;6361;52.120;5.108;2023-05-07T01:08:18;20.35;;;14.52;;
12591;SDS011;6361;52.120;5.108;2023-05-07T01:10:43;16.63;;;13.68;;
12591;SDS011;6361;52.120;5.108;2023-05-07T01:13:12;17.02;;;13.68;;
12591;SDS011;6361;52.120;5.108;2023-05-07T01:15:37;16.58;;;11.02;;
12591;SDS011;6361;52.120;5.108;2023-05-07T01:18:03;15.23;;;11.10;;
12591;SDS011;6361;52.120;5.108;2023-05-07T01:20:29;17.65;;;13.13;;
12591;SDS011;6361;52.120;5.108;2023-05-07T01:22:55;17.67;;;12.48;;
12591;SDS011;6361;52.120;5.108;2023-05-07T01:25:21;17.65;;;13.15;;
12591;SDS011;6361;52.120;5.108;2023-05-07T01:27:47;16.88;;;12.60;;
12591;SDS011;6361;52.120;5.108;2023-05-07T01:30:12;13.73;;;12.18;;
12591;SDS011;6361;52.120;5.108;2023-05-07T01:32:57;14.07;;;11.45;;
12591;SDS011;6361;52.120;5.108;2023-05-07T01:35:26;16.52;;;12.00;;
12591;SDS011;6361;52.120;5.108;2023-05-07T01:37:54;14.90;;;11.68;;
12591;SDS011;6361;52.120;5.108;2023-05-07T01:40:19;15.75;;;11.88;;
12591;SDS011;6361;52.120;5.108;2023-05-07T01:42:45;14.27;;;11.88;;
12591;SDS011;6361;52.120;5.108;2023-05-07T01:45:11;13.50;;;11.70;;
12591;SDS011;6361;52.120;5.108;2023-05-07T01:47:37;14.60;;;12.35;;
12591;SDS011;6361;52.120;5.108;2023-05-07T01:50:03;15.98;;;11.65;;
12591;SDS011;6361;52.120;5.108;2023-05-07T01:52:30;14.38;;;11.63;;
12591;SDS011;6361;52.120;5.108;2023-05-07T01:54:56;13.80;;;11.25;;
12591;SDS011;6361;52.120;5.108;2023-05-07T01:57:21;12.95;;;11.50;;
12591;SDS011;6361;52.120;5.108;2023-05-07T01:59:46;14.90;;;11.60;;
12591;SDS011;6361;52.120;5.108;2023-05-07T02:02:12;13.50;;;11.73;;
12591;SDS011;6361;52.120;5.108;2023-05-07T02:04:37;15.32;;;12.07;;
12591;SDS011;6361;52.120;5.108;2023-05-07T02:07:03;14.45;;;11.68;;
12591;SDS011;6361;52.120;5.108;2023-05-07T02:09:28;16.33;;;11.45;;
12591;SDS011;6361;52.120;5.108;2023-05-07T02:11:53;12.57;;;10.70;;
12591;SDS011;6361;52.120;5.108;2023-05-07T02:14:19;12.43;;;10.77;;
12591;SDS011;6361;52.120;5.108;2023-05-07T02:16:45;15.10;;;11.35;;
12591;SDS011;6361;52.120;5.108;2023-05-07T02:19:12;12.88;;;10.90;;
12591;SDS011;6361;52.120;5.108;2023-05-07T02:21:37;14.15;;;11.45;;
12591;SDS011;6361;52.120;5.108;2023-05-07T02:24:02;13.10;;;10.95;;
12591;SDS011;6361;52.120;5.108;2023-05-07T02:26:28;12.55;;;10.68;;
12591;SDS011;6361;52.120;5.108;2023-05-07T02:28:53;13.82;;;10.77;;
12591;SDS011;6361;52.120;5.108;2023-05-07T02:31:19;13.80;;;10.57;;
12591;SDS011;6361;52.120;5.108;2023-05-07T02:33:44;12.38;;;10.45;;
12591;SDS011;6361;52.120;5.108;2023-05-07T02:36:11;14.07;;;11.02;;
12591;SDS011;6361;52.120;5.108;2023-05-07T02:38:36;15.65;;;11.05;;
12591;SDS011;6361;52.120;5.108;2023-05-07T02:41:02;14.05;;;10.75;;
12591;SDS011;6361;52.120;5.108;2023-05-07T02:43:27;13.13;;;10.63;;
12591;SDS011;6361;52.120;5.108;2023-05-07T02:48:28;14.07;;;10.18;;
12591;SDS011;6361;52.120;5.108;2023-05-07T02:50:54;12.77;;;10.45;;
12591;SDS011;6361;52.120;5.108;2023-05-07T02:53:19;12.35;;;10.35;;
12591;SDS011;6361;52.120;5.108;2023-05-07T02:55:45;11.13;;;9.15;;
12591;SDS011;6361;52.120;5.108;2023-05-07T02:58:10;16.27;;;10.73;;
12591;SDS011;6361;52.120;5.108;2023-05-07T03:00:35;14.77;;;11.27;;
12591;SDS011;6361;52.120;5.108;2023-05-07T03:03:01;14.60;;;10.88;;
12591;SDS011;6361;52.120;5.108;2023-05-07T03:05:26;14.60;;;11.68;;
12591;SDS011;6361;52.120;5.108;2023-05-07T03:07:51;15.20;;;11.50;;
12591;SDS011;6361;52.120;5.108;2023-05-07T03:10:17;14.25;;;10.48;;
12591;SDS011;6361;52.120;5.108;2023-05-07T03:12:43;15.57;;;11.48;;
12591;SDS011;6361;52.120;5.108;2023-05-07T03:15:09;16.13;;;12.00;;
12591;SDS011;6361;52.120;5.108;2023-05-07T03:17:35;12.57;;;9.57;;
12591;SDS011;6361;52.120;5.108;2023-05-07T03:20:00;12.82;;;10.02;;
12591;SDS011;6361;52.120;5.108;2023-05-07T03:22:26;13.27;;;10.90;;
12591;SDS011;6361;52.120;5.108;2023-05-07T03:24:51;13.98;;;11.70;;
12591;SDS011;6361;52.120;5.108;2023-05-07T03:27:17;15.00;;;10.07;;
12591;SDS011;6361;52.120;5.108;2023-05-07T03:29:42;15.40;;;11.95;;
12591;SDS011;6361;52.120;5.108;2023-05-07T03:32:07;11.68;;;10.48;;
12591;SDS011;6361;52.120;5.108;2023-05-07T03:34:33;13.90;;;11.40;;
12591;SDS011;6361;52.120;5.108;2023-05-07T03:36:58;13.27;;;11.50;;
12591;SDS011;6361;52.120;5.108;2023-05-07T03:39:23;13.73;;;12.18;;
12591;SDS011;6361;52.120;5.108;2023-05-07T03:41:49;14.82;;;11.15;;
12591;SDS011;6361;52.120;5.108;2023-05-07T03:44:14;14.82;;;12.23;;
12591;SDS011;6361;52.120;5.108;2023-05-07T03:46:40;16.02;;;11.43;;
12591;SDS011;6361;52.120;5.108;2023-05-07T03:49:05;16.15;;;12.45;;
12591;SDS011;6361;52.120;5.108;2023-05-07T03:51:30;15.05;;;12.45;;
12591;SDS011;6361;52.120;5.108;2023-05-07T03:53:56;17.77;;;13.05;;
12591;SDS011;6361;52.120;5.108;2023-05-07T03:56:22;15.25;;;12.32;;
12591;SDS011;6361;52.120;5.108;2023-05-07T03:58:48;15.15;;;12.25;;
12591;SDS011;6361;52.120;5.108;2023-05-07T04:01:13;17.75;;;12.25;;
12591;SDS011;6361;52.120;5.108;2023-05-07T04:03:38;14.00;;;12.50;;
12591;SDS011;6361;52.120;5.108;2023-05-07T04:06:04;15.57;;;12.55;;
12591;SDS011;6361;52.120;5.108;2023-05-07T04:08:29;15.90;;;12.45;;
12591;SDS011;6361;52.120;5.108;2023-05-07T04:10:56;16.10;;;11.98;;
12591;SDS011;6361;52.120;5.108;2023-05-07T04:13:21;16.58;;;12.88;;
12591;SDS011;6361;52.120;5.108;2023-05-07T04:15:47;15.75;;;12.48;;
12591;SDS011;6361;52.120;5.108;2023-05-07T04:18:14;17.00;;;13.10;;
12591;SDS011;6361;52.120;5.108;2023-05-07T04:20:39;16.85;;;13.27;;
12591;SDS011;6361;52.120;5.108;2023-05-07T04:23:05;15.85;;;13.50;;
12591;SDS011;6361;52.120;5.108;2023-05-07T04:25:30;16.15;;;13.95;;
12591;SDS011;6361;52.120;5.108;2023-05-07T04:27:56;15.25;;;13.52;;
12591;SDS011;6361;52.120;5.108;2023-05-07T04:30:21;17.73;;;13.68;;
12591;SDS011;6361;52.120;5.108;2023-05-07T04:32:46;20.08;;;15.02;;
12591;SDS011;6361;52.120;5.108;2023-05-07T04:35:13;20.33;;;15.75;;
12591;SDS011;6361;52.120;5.108;2023-05-07T04:37:38;17.95;;;15.55;;
12591;SDS011;6361;52.120;5.108;2023-05-07T04:40:03;19.10;;;16.00;;
12591;SDS011;6361;52.120;5.108;2023-05-07T04:42:29;17.65;;;15.73;;
12591;SDS011;6361;52.120;5.108;2023-05-07T04:44:56;19.88;;;16.42;;
12591;SDS011;6361;52.120;5.108;2023-05-07T04:47:21;22.08;;;16.88;;
12591;SDS011;6361;52.120;5.108;2023-05-07T04:49:47;19.73;;;17.70;;
12591;SDS011;6361;52.120;5.108;2023-05-07T04:52:12;18.42;;;15.32;;
12591;SDS011;6361;52.120;5.108;2023-05-07T04:54:37;23.88;;;17.88;;
12591;SDS011;6361;52.120;5.108;2023-05-07T04:57:06;20.60;;;17.02;;
12591;SDS011;6361;52.120;5.108;2023-05-07T04:59:31;17.67;;;14.18;;
12591;SDS011;6361;52.120;5.108;2023-05-07T05:01:57;19.65;;;15.60;;
12591;SDS011;6361;52.120;5.108;2023-05-07T05:04:22;22.50;;;18.38;;
12591;SDS011;6361;52.120;5.108;2023-05-07T05:06:48;20.20;;;18.02;;
12591;SDS011;6361;52.120;5.108;2023-05-07T05:09:13;19.65;;;17.13;;
12591;SDS011;6361;52.120;5.108;2023-05-07T05:11:39;17.58;;;15.73;;
12591;SDS011;6361;52.120;5.108;2023-05-07T05:14:05;20.58;;;17.80;;
12591;SDS011;6361;52.120;5.108;2023-05-07T05:16:30;19.13;;;17.10;;
12591;SDS011;6361;52.120;5.108;2023-05-07T05:18:55;22.45;;;17.90;;
12591;SDS011;6361;52.120;5.108;2023-05-07T05:21:21;20.92;;;18.38;;
12591;SDS011;6361;52.120;5.108;2023-05-07T05:23:46;20.30;;;18.15;;
12591;SDS011;6361;52.120;5.108;2023-05-07T05:26:12;25.00;;;18.65;;
12591;SDS011;6361;52.120;5.108;2023-05-07T05:28:37;21.17;;;18.27;;
12591;SDS011;6361;52.120;5.108;2023-05-07T05:31:04;20.80;;;17.88;;
12591;SDS011;6361;52.120;5.108;2023-05-07T05:33:29;26.23;;;18.75;;
12591;SDS011;6361;52.120;5.108;2023-05-07T05:35:55;20.60;;;18.23;;
12591;SDS011;6361;52.120;5.108;2023-05-07T05:38:20;21.65;;;18.45;;
12591;SDS011;6361;52.120;5.108;2023-05-07T05:40:46;21.38;;;17.65;;
12591;SDS011;6361;52.120;5.108;2023-05-07T05:43:11;22.30;;;17.42;;
12591;SDS011;6361;52.120;5.108;2023-05-07T05:45:37;21.48;;;17.83;;
12591;SDS011;6361;52.120;5.108;2023-05-07T05:48:02;22.15;;;17.83;;
12591;SDS011;6361;52.120;5.108;2023-05-07T05:50:28;20.55;;;17.80;;
12591;SDS011;6361;52.120;5.108;2023-05-07T05:52:53;21.33;;;17.80;;
12591;SDS011;6361;52.120;5.108;2023-05-07T05:55:19;17.73;;;15.23;;
12591;SDS011;6361;52.120;5.108;2023-05-07T05:57:44;24.83;;;17.52;;
12591;SDS011;6361;52.120;5.108;2023-05-07T06:00:10;20.23;;;17.15;;
12591;SDS011;6361;52.120;5.108;2023-05-07T06:02:36;23.98;;;17.95;;
12591;SDS011;6361;52.120;5.108;2023-05-07T06:05:01;22.50;;;17.85;;
12591;SDS011;6361;52.120;5.108;2023-05-07T06:07:26;20.88;;;17.58;;
12591;SDS011;6361;52.120;5.108;2023-05-07T06:09:52;22.38;;;17.33;;
12591;SDS011;6361;52.120;5.108;2023-05-07T06:12:17;24.05;;;18.20;;
12591;SDS011;6361;52.120;5.108;2023-05-07T06:14:43;20.55;;;17.70;;
12591;SDS011;6361;52.120;5.108;2023-05-07T06:17:08;21.35;;;16.17;;
12591;SDS011;6361;52.120;5.108;2023-05-07T06:19:34;21.33;;;17.30;;
12591;SDS011;6361;52.120;5.108;2023-05-07T06:21:59;21.85;;;17.52;;
12591;SDS011;6361;52.120;5.108;2023-05-07T06:24:26;24.83;;;18.08;;
12591;SDS011;6361;52.120;5.108;2023-05-07T06:26:52;21.83;;;17.50;;
12591;SDS011;6361;52.120;5.108;2023-05-07T06:29:17;20.90;;;18.05;;
12591;SDS011;6361;52.120;5.108;2023-05-07T06:31:43;21.98;;;17.50;;
12591;SDS011;6361;52.120;5.108;2023-05-07T06:34:08;21.52;;;18.17;;
12591;SDS011;6361;52.120;5.108;2023-05-07T06:36:34;20.33;;;16.65;;
12591;SDS011;6361;52.120;5.108;2023-05-07T06:38:59;21.23;;;17.77;;
12591;SDS011;6361;52.120;5.108;2023-05-07T06:41:25;23.25;;;18.27;;
12591;SDS011;6361;52.120;5.108;2023-05-07T06:43:50;21.67;;;17.55;;
12591;SDS011;6361;52.120;5.108;2023-05-07T06:46:16;18.85;;;16.83;;
12591;SDS011;6361;52.120;5.108;2023-05-07T06:48:41;24.60;;;18.02;;
12591;SDS011;6361;52.120;5.108;2023-05-07T06:51:06;21.02;;;17.73;;
12591;SDS011;6361;52.120;5.108;2023-05-07T06:53:32;24.23;;;17.30;;
12591;SDS011;6361;52.120;5.108;2023-05-07T06:55:57;21.80;;;17.45;;
12591;SDS011;6361;52.120;5.108;2023-05-07T06:58:23;21.85;;;17.55;;
12591;SDS011;6361;52.120;5.108;2023-05-07T07:00:48;22.27;;;18.15;;
12591;SDS011;6361;52.120;5.108;2023-05-07T07:03:14;23.90;;;17.95;;
12591;SDS011;6361;52.120;5.108;2023-05-07T07:05:42;24.27;;;18.25;;
12591;SDS011;6361;52.120;5.108;2023-05-07T07:08:08;23.33;;;18.48;;
12591;SDS011;6361;52.120;5.108;2023-05-07T07:10:34;27.02;;;19.20;;
12591;SDS011;6361;52.120;5.108;2023-05-07T07:12:59;23.35;;;19.05;;
12591;SDS011;6361;52.120;5.108;2023-05-07T07:15:25;24.55;;;19.23;;
12591;SDS011;6361;52.120;5.108;2023-05-07T07:17:50;24.67;;;18.20;;
12591;SDS011;6361;52.120;5.108;2023-05-07T07:20:16;25.02;;;18.83;;
12591;SDS011;6361;52.120;5.108;2023-05-07T07:22:41;23.85;;;18.15;;
12591;SDS011;6361;52.120;5.108;2023-05-07T07:25:07;24.20;;;18.55;;
12591;SDS011;6361;52.120;5.108;2023-05-07T07:27:32;25.38;;;19.38;;
12591;SDS011;6361;52.120;5.108;2023-05-07T07:29:58;24.10;;;18.60;;
12591;SDS011;6361;52.120;5.108;2023-05-07T07:32:23;24.50;;;18.63;;
12591;SDS011;6361;52.120;5.108;2023-05-07T07:34:48;25.05;;;20.15;;
12591;SDS011;6361;52.120;5.108;2023-05-07T07:37:14;23.38;;;18.25;;
12591;SDS011;6361;52.120;5.108;2023-05-07T07:39:39;23.00;;;18.52;;
12591;SDS011;6361;52.120;5.108;2023-05-07T07:42:06;26.27;;;19.50;;
12591;SDS011;6361;52.120;5.108;2023-05-07T07:44:31;27.25;;;18.77;;
12591;SDS011;6361;52.120;5.108;2023-05-07T07:46:56;21.70;;;17.67;;
12591;SDS011;6361;52.120;5.108;2023-05-07T07:49:22;22.90;;;18.20;;
12591;SDS011;6361;52.120;5.108;2023-05-07T07:51:47;24.05;;;18.88;;
12591;SDS011;6361;52.120;5.108;2023-05-07T07:54:12;22.17;;;17.73;;
12591;SDS011;6361;52.120;5.108;2023-05-07T07:56:38;22.60;;;17.85;;
12591;SDS011;6361;52.120;5.108;2023-05-07T07:59:03;22.77;;;17.98;;
12591;SDS011;6361;52.120;5.108;2023-05-07T08:01:29;22.25;;;17.70;;
12591;SDS011;6361;52.120;5.108;2023-05-07T08:03:55;23.45;;;17.73;;
12591;SDS011;6361;52.120;5.108;2023-05-07T08:06:20;23.38;;;18.67;;
12591;SDS011;6361;52.120;5.108;2023-05-07T08:08:46;25.00;;;19.00;;
12591;SDS011;6361;52.120;5.108;2023-05-07T08:11:11;24.15;;;18.35;;
12591;SDS011;6361;52.120;5.108;2023-05-07T08:13:36;23.10;;;18.35;;
12591;SDS011;6361;52.120;5.108;2023-05-07T08:16:03;21.23;;;17.75;;
12591;SDS011;6361;52.120;5.108;2023-05-07T08:18:29;21.50;;;17.50;;
12591;SDS011;6361;52.120;5.108;2023-05-07T08:20:54;22.90;;;16.95;;
12591;SDS011;6361;52.120;5.108;2023-05-07T08:23:20;22.13;;;17.50;;
12591;SDS011;6361;52.120;5.108;2023-05-07T08:25:45;21.10;;;16.95;;
12591;SDS011;6361;52.120;5.108;2023-05-07T08:28:11;21.00;;;16.35;;
12591;SDS011;6361;52.120;5.108;2023-05-07T08:30:36;19.83;;;15.65;;
12591;SDS011;6361;52.120;5.108;2023-05-07T08:33:02;18.30;;;15.38;;
12591;SDS011;6361;52.120;5.108;2023-05-07T08:35:27;21.25;;;16.10;;
12591;SDS011;6361;52.120;5.108;2023-05-07T08:37:53;21.35;;;15.65;;
12591;SDS011;6361;52.120;5.108;2023-05-07T08:40:18;20.13;;;15.90;;
12591;SDS011;6361;52.120;5.108;2023-05-07T08:42:44;18.42;;;15.73;;
12591;SDS011;6361;52.120;5.108;2023-05-07T08:45:10;23.30;;;17.33;;
12591;SDS011;6361;52.120;5.108;2023-05-07T08:47:43;21.15;;;15.50;;
12591;SDS011;6361;52.120;5.108;2023-05-07T08:50:12;17.52;;;15.55;;
12591;SDS011;6361;52.120;5.108;2023-05-07T08:52:38;21.17;;;16.40;;
12591;SDS011;6361;52.120;5.108;2023-05-07T08:55:07;18.27;;;14.70;;
12591;SDS011;6361;52.120;5.108;2023-05-07T08:57:33;19.42;;;15.73;;
12591;SDS011;6361;52.120;5.108;2023-05-07T08:59:59;21.45;;;16.23;;
12591;SDS011;6361;52.120;5.108;2023-05-07T09:02:24;16.35;;;13.25;;
12591;SDS011;6361;52.120;5.108;2023-05-07T09:04:50;19.67;;;14.98;;
12591;SDS011;6361;52.120;5.108;2023-05-07T09:07:16;18.88;;;15.30;;
12591;SDS011;6361;52.120;5.108;2023-05-07T09:09:41;18.33;;;15.02;;
12591;SDS011;6361;52.120;5.108;2023-05-07T09:12:09;16.85;;;12.95;;
12591;SDS011;6361;52.120;5.108;2023-05-07T09:14:34;17.50;;;14.27;;
12591;SDS011;6361;52.120;5.108;2023-05-07T09:17:00;28.25;;;19.00;;
12591;SDS011;6361;52.120;5.108;2023-05-07T09:19:26;18.38;;;14.13;;
12591;SDS011;6361;52.120;5.108;2023-05-07T09:21:58;18.00;;;13.23;;
12591;SDS011;6361;52.120;5.108;2023-05-07T09:24:25;15.02;;;12.38;;
12591;SDS011;6361;52.120;5.108;2023-05-07T09:26:50;18.75;;;12.35;;
12591;SDS011;6361;52.120;5.108;2023-05-07T09:29:16;15.85;;;12.20;;
12591;SDS011;6361;52.120;5.108;2023-05-07T09:31:42;15.65;;;11.75;;
12591;SDS011;6361;52.120;5.108;2023-05-07T09:34:10;13.98;;;11.30;;
12591;SDS011;6361;52.120;5.108;2023-05-07T09:36:36;12.45;;;10.02;;
12591;SDS011;6361;52.120;5.108;2023-05-07T09:39:01;17.45;;;10.95;;
12591;SDS011;6361;52.120;5.108;2023-05-07T09:41:26;20.50;;;12.07;;
12591;SDS011;6361;52.120;5.108;2023-05-07T09:43:55;14.10;;;11.27;;
12591;SDS011;6361;52.120;5.108;2023-05-07T09:46:21;17.15;;;11.27;;
12591;SDS011;6361;52.120;5.108;2023-05-07T09:48:59;16.70;;;12.93;;
12591;SDS011;6361;52.120;5.108;2023-05-07T09:51:45;15.30;;;12.20;;
12591;SDS011;6361;52.120;5.108;2023-05-07T09:54:14;14.40;;;11.82;;
12591;SDS011;6361;52.120;5.108;2023-05-07T09:56:40;13.63;;;10.85;;
12591;SDS011;6361;52.120;5.108;2023-05-07T09:59:08;14.35;;;10.80;;
12591;SDS011;6361;52.120;5.108;2023-05-07T10:01:36;14.25;;;10.70;;
12591;SDS011;6361;52.120;5.108;2023-05-07T10:04:02;13.98;;;10.85;;
12591;SDS011;6361;52.120;5.108;2023-05-07T10:06:29;15.13;;;10.27;;
12591;SDS011;6361;52.120;5.108;2023-05-07T10:08:55;15.55;;;10.73;;
12591;SDS011;6361;52.120;5.108;2023-05-07T10:11:21;14.00;;;10.70;;
12591;SDS011;6361;52.120;5.108;2023-05-07T10:13:47;16.38;;;11.02;;
12591;SDS011;6361;52.120;5.108;2023-05-07T10:16:13;14.27;;;9.73;;
12591;SDS011;6361;52.120;5.108;2023-05-07T10:18:38;12.43;;;9.30;;
12591;SDS011;6361;52.120;5.108;2023-05-07T10:21:11;12.32;;;9.13;;
12591;SDS011;6361;52.120;5.108;2023-05-07T10:23:41;11.82;;;8.65;;
12591;SDS011;6361;52.120;5.108;2023-05-07T10:26:10;11.25;;;9.32;;
12591;SDS011;6361;52.120;5.108;2023-05-07T10:28:38;13.60;;;9.20;;
12591;SDS011;6361;52.120;5.108;2023-05-07T10:31:08;12.95;;;9.35;;
12591;SDS011;6361;52.120;5.108;2023-05-07T10:33:35;14.48;;;10.05;;
12591;SDS011;6361;52.120;5.108;2023-05-07T10:36:01;12.50;;;9.15;;
12591;SDS011;6361;52.120;5.108;2023-05-07T10:38:29;13.65;;;8.85;;
12591;SDS011;6361;52.120;5.108;2023-05-07T10:40:55;12.15;;;7.40;;
12591;SDS011;6361;52.120;5.108;2023-05-07T10:43:20;11.80;;;7.50;;
12591;SDS011;6361;52.120;5.108;2023-05-07T10:46:09;10.32;;;7.03;;
12591;SDS011;6361;52.120;5.108;2023-05-07T10:48:49;7.82;;;5.45;;
12591;SDS011;6361;52.120;5.108;2023-05-07T10:51:27;10.63;;;6.15;;
12591;SDS011;6361;52.120;5.108;2023-05-07T10:54:39;8.10;;;6.28;;
12591;SDS011;6361;52.120;5.108;2023-05-07T10:56:41;10.13;;;6.50;;
12591;SDS011;6361;52.120;5.108;2023-05-07T11:04:17;7.00;;;4.00;;
12591;SDS011;6361;52.120;5.108;2023-05-07T11:15:09;7.53;;;4.00;;
12591;SDS011;6361;52.120;5.108;2023-05-07T11:17:51;6.32;;;4.15;;
12591;SDS011;6361;52.120;5.108;2023-05-07T11:26:02;7.22;;;4.13;;
12591;SDS011;6361;52.120;5.108;2023-05-07T11:28:38;10.80;;;4.72;;
12591;SDS011;6361;52.120;5.108;2023-05-07T11:31:09;11.18;;;6.10;;
12591;SDS011;6361;52.120;5.108;2023-05-07T11:33:35;5.53;;;4.65;;
12591;SDS011;6361;52.120;5.108;2023-05-07T11:36:04;5.15;;;4.20;;
12591;SDS011;6361;52.120;5.108;2023-05-07T11:38:30;8.95;;;4.78;;
12591;SDS011;6361;52.120;5.108;2023-05-07T11:40:59;9.20;;;4.70;;
12591;SDS011;6361;52.120;5.108;2023-05-07T11:43:29;7.38;;;4.40;;
12591;SDS011;6361;52.120;5.108;2023-05-07T11:45:58;12.30;;;4.30;;
12591;SDS011;6361;52.120;5.108;2023-05-07T11:48:30;7.55;;;4.47;;
12591;SDS011;6361;52.120;5.108;2023-05-07T11:51:00;12.50;;;6.53;;
12591;SDS011;6361;52.120;5.108;2023-05-07T11:53:27;6.65;;;4.18;;
12591;SDS011;6361;52.120;5.108;2023-05-07T11:55:57;8.27;;;4.72;;
12591;SDS011;6361;52.120;5.108;2023-05-07T11:58:23;11.45;;;4.43;;
12591;SDS011;6361;52.120;5.108;2023-05-07T12:00:52;5.88;;;4.65;;
12591;SDS011;6361;52.120;5.108;2023-05-07T12:03:18;7.60;;;4.15;;
12591;SDS011;6361;52.120;5.108;2023-05-07T12:05:44;9.20;;;4.50;;
12591;SDS011;6361;52.120;5.108;2023-05-07T12:08:17;5.95;;;3.50;;
12591;SDS011;6361;52.120;5.108;2023-05-07T12:10:44;7.30;;;3.90;;
12591;SDS011;6361;52.120;5.108;2023-05-07T12:13:14;6.10;;;3.83;;
12591;SDS011;6361;52.120;5.108;2023-05-07T12:15:40;8.02;;;6.85;;
12591;SDS011;6361;52.120;5.108;2023-05-07T12:18:06;8.50;;;5.18;;
12591;SDS011;6361;52.120;5.108;2023-05-07T12:20:34;8.45;;;4.50;;
12591;SDS011;6361;52.120;5.108;2023-05-07T12:23:04;9.18;;;5.10;;
12591;SDS011;6361;52.120;5.108;2023-05-07T12:25:50;8.80;;;6.38;;
12591;SDS011;6361;52.120;5.108;2023-05-07T12:28:16;10.07;;;6.22;;
12591;SDS011;6361;52.120;5.108;2023-05-07T12:30:43;11.23;;;6.50;;
12591;SDS011;6361;52.120;5.108;2023-05-07T12:33:09;8.25;;;5.85;;
12591;SDS011;6361;52.120;5.108;2023-05-07T12:35:42;10.50;;;5.97;;
12591;SDS011;6361;52.120;5.108;2023-05-07T12:38:14;7.53;;;5.78;;
12591;SDS011;6361;52.120;5.108;2023-05-07T12:40:45;8.25;;;5.68;;
12591;SDS011;6361;52.120;5.108;2023-05-07T12:43:25;8.55;;;4.47;;
12591;SDS011;6361;52.120;5.108;2023-05-07T12:45:56;11.30;;;6.50;;
12591;SDS011;6361;52.120;5.108;2023-05-07T12:48:23;7.63;;;4.72;;
12591;SDS011;6361;52.120;5.108;2023-05-07T12:50:52;6.80;;;4.63;;
12591;SDS011;6361;52.120;5.108;2023-05-07T12:53:20;8.07;;;4.50;;
12591;SDS011;6361;52.120;5.108;2023-05-07T12:55:50;11.52;;;5.07;;
12591;SDS011;6361;52.120;5.108;2023-05-07T12:58:18;8.60;;;5.25;;
12591;SDS011;6361;52.120;5.108;2023-05-07T13:00:45;7.93;;;5.50;;
12591;SDS011;6361;52.120;5.108;2023-05-07T13:03:16;9.40;;;5.40;;
12591;SDS011;6361;52.120;5.108;2023-05-07T13:05:46;8.65;;;5.57;;
12591;SDS011;6361;52.120;5.108;2023-05-07T13:08:11;10.80;;;5.80;;
12591;SDS011;6361;52.120;5.108;2023-05-07T13:10:37;10.27;;;6.00;;
12591;SDS011;6361;52.120;5.108;2023-05-07T13:13:02;10.20;;;6.20;;
12591;SDS011;6361;52.120;5.108;2023-05-07T13:15:30;12.82;;;5.80;;
12591;SDS011;6361;52.120;5.108;2023-05-07T13:17:55;9.82;;;6.40;;
12591;SDS011;6361;52.120;5.108;2023-05-07T13:20:21;9.40;;;6.47;;
12591;SDS011;6361;52.120;5.108;2023-05-07T13:22:46;8.77;;;5.80;;
12591;SDS011;6361;52.120;5.108;2023-05-07T13:25:11;11.75;;;6.45;;
12591;SDS011;6361;52.120;5.108;2023-05-07T13:27:37;11.10;;;5.88;;
12591;SDS011;6361;52.120;5.108;2023-05-07T13:30:03;6.97;;;5.03;;
12591;SDS011;6361;52.120;5.108;2023-05-07T13:32:29;9.40;;;4.50;;
12591;SDS011;6361;52.120;5.108;2023-05-07T13:34:55;8.77;;;4.97;;
12591;SDS011;6361;52.120;5.108;2023-05-07T13:37:20;7.82;;;5.38;;
12591;SDS011;6361;52.120;5.108;2023-05-07T13:39:46;12.20;;;6.43;;
12591;SDS011;6361;52.120;5.108;2023-05-07T13:42:11;14.63;;;7.00;;
12591;SDS011;6361;52.120;5.108;2023-05-07T13:44:37;10.63;;;6.57;;
12591;SDS011;6361;52.120;5.108;2023-05-07T13:47:02;10.57;;;6.22;;
12591;SDS011;6361;52.120;5.108;2023-05-07T13:49:27;9.32;;;6.40;;
12591;SDS011;6361;52.120;5.108;2023-05-07T13:51:53;12.15;;;6.45;;
12591;SDS011;6361;52.120;5.108;2023-05-07T13:54:18;11.18;;;5.57;;
12591;SDS011;6361;52.120;5.108;2023-05-07T13:56:43;8.20;;;5.25;;
12591;SDS011;6361;52.120;5.108;2023-05-07T13:59:10;9.05;;;5.47;;
12591;SDS011;6361;52.120;5.108;2023-05-07T14:01:37;8.10;;;4.88;;
12591;SDS011;6361;52.120;5.108;2023-05-07T14:04:02;8.13;;;3.85;;
12591;SDS011;6361;52.120;5.108;2023-05-07T14:06:28;9.27;;;3.90;;
12591;SDS011;6361;52.120;5.108;2023-05-07T14:08:53;9.23;;;4.05;;
12591;SDS011;6361;52.120;5.108;2023-05-07T14:11:19;9.45;;;4.50;;
12591;SDS011;6361;52.120;5.108;2023-05-07T14:13:44;10.32;;;4.40;;
12591;SDS011;6361;52.120;5.108;2023-05-07T14:16:09;7.10;;;4.40;;
12591;SDS011;6361;52.120;5.108;2023-05-07T14:18:35;6.78;;;3.92;;
12591;SDS011;6361;52.120;5.108;2023-05-07T14:21:02;9.18;;;3.67;;
12591;SDS011;6361;52.120;5.108;2023-05-07T14:23:27;6.40;;;3.80;;
12591;SDS011;6361;52.120;5.108;2023-05-07T14:25:53;12.35;;;9.07;;
12591;SDS011;6361;52.120;5.108;2023-05-07T14:28:18;6.10;;;3.70;;
12591;SDS011;6361;52.120;5.108;2023-05-07T14:30:44;7.78;;;3.47;;
12591;SDS011;6361;52.120;5.108;2023-05-07T14:33:09;5.38;;;3.50;;
12591;SDS011;6361;52.120;5.108;2023-05-07T14:35:35;8.90;;;4.65;;
12591;SDS011;6361;52.120;5.108;2023-05-07T14:38:00;12.55;;;7.93;;
12591;SDS011;6361;52.120;5.108;2023-05-07T14:40:25;16.05;;;9.27;;
12591;SDS011;6361;52.120;5.108;2023-05-07T14:42:51;14.57;;;11.52;;
12591;SDS011;6361;52.120;5.108;2023-05-07T14:45:16;16.75;;;11.85;;
12591;SDS011;6361;52.120;5.108;2023-05-07T14:47:42;12.20;;;7.68;;
12591;SDS011;6361;52.120;5.108;2023-05-07T14:50:07;12.52;;;9.23;;
12591;SDS011;6361;52.120;5.108;2023-05-07T14:52:33;11.77;;;8.70;;
12591;SDS011;6361;52.120;5.108;2023-05-07T14:54:58;9.77;;;6.85;;
12591;SDS011;6361;52.120;5.108;2023-05-07T14:57:23;8.13;;;4.22;;